createdAt,value
2018-10-19T00:00:53.372Z,88.33
2018-10-19T00:03:22.113Z,88.00
2018-10-19T00:05:50.856Z,89.60
2018-10-19T00:08:29.111Z,90.17
2018-10-19T00:10:57.946Z,87.67
2018-10-19T00:13:26.876Z,88.50
2018-10-19T00:15:55.616Z,89.40
2018-10-19T00:18:24.567Z,90.53
2018-10-19T00:20:53.412Z,89.97
2018-10-19T00:23:22.096Z,93.97
2018-10-19T00:25:50.843Z,90.43
2018-10-19T00:28:19.625Z,89.40
2018-10-19T00:30:48.400Z,88.70
2018-10-19T00:33:17.133Z,88.93
2018-10-19T00:35:45.868Z,88.33
2018-10-19T00:38:14.648Z,87.10
2018-10-19T00:40:43.392Z,88.13
2018-10-19T00:43:12.143Z,89.93
2018-10-19T00:45:47.369Z,90.10
2018-10-19T00:48:18.097Z,90.10
2018-10-19T00:50:46.932Z,86.33
2018-10-19T00:53:15.887Z,86.43
2018-10-19T00:55:44.569Z,85.27
2018-10-19T00:58:13.304Z,85.27
2018-10-19T01:00:42.806Z,87.37
2018-10-19T01:03:11.675Z,87.10
2018-10-19T01:05:40.887Z,88.03
2018-10-19T01:08:10.292Z,85.73
2018-10-19T01:10:39.040Z,87.67
2018-10-19T01:13:07.784Z,88.30
2018-10-19T01:15:36.536Z,90.10
2018-10-19T01:18:05.276Z,87.67
2018-10-19T01:20:34.036Z,86.47
2018-10-19T01:23:02.826Z,86.97
2018-10-19T01:25:31.527Z,90.00
2018-10-19T01:28:00.257Z,89.90
2018-10-19T01:30:28.997Z,88.87
2018-10-19T01:32:57.753Z,84.87
2018-10-19T01:35:26.504Z,84.50
2018-10-19T01:37:55.252Z,84.70
2018-10-19T01:40:23.992Z,84.63
2018-10-19T01:42:52.740Z,83.77
2018-10-19T01:45:21.494Z,86.30
2018-10-19T01:47:50.224Z,84.37
2018-10-19T01:50:18.960Z,85.70
2018-10-19T01:52:47.740Z,90.70
2018-10-19T01:55:16.483Z,85.17
2018-10-19T01:57:45.252Z,84.50
2018-10-19T02:00:14.007Z,86.83
2018-10-19T02:02:42.745Z,84.37
2018-10-19T02:05:11.762Z,86.17
2018-10-19T02:07:40.488Z,85.97
2018-10-19T02:10:09.212Z,86.33
2018-10-19T02:12:37.984Z,87.60
2018-10-19T02:15:07.690Z,86.20
2018-10-19T02:17:36.376Z,87.00
2018-10-19T02:20:05.323Z,85.83
2018-10-19T02:22:34.776Z,87.83
2018-10-19T02:25:03.521Z,87.73
2018-10-19T02:27:32.256Z,88.70
2018-10-19T02:30:01.008Z,88.33
2018-10-19T02:32:29.732Z,88.07
2018-10-19T02:34:58.543Z,87.47
2018-10-19T02:37:27.220Z,88.03
2018-10-19T02:39:55.969Z,87.10
2018-10-19T02:42:24.708Z,87.77
2018-10-19T02:44:53.454Z,89.30
2018-10-19T02:47:22.184Z,89.67
2018-10-19T02:49:50.932Z,89.67
2018-10-19T02:52:19.665Z,89.70
2018-10-19T02:54:48.412Z,91.90
2018-10-19T02:57:17.184Z,91.90
2018-10-19T02:59:45.964Z,92.40
2018-10-19T03:02:14.702Z,93.90
2018-10-19T03:04:43.439Z,93.17
2018-10-19T03:07:12.252Z,93.67
2018-10-19T03:09:41.021Z,94.53
2018-10-19T03:12:09.732Z,94.67
2018-10-19T03:14:38.600Z,93.23
2018-10-19T03:17:07.359Z,96.40
2018-10-19T03:19:36.084Z,93.27
2018-10-19T03:22:05.261Z,92.27
2018-10-19T03:24:34.025Z,92.13
2018-10-19T03:27:02.791Z,93.73
2018-10-19T03:29:31.509Z,93.10
2018-10-19T03:32:00.248Z,92.30
2018-10-19T03:34:28.986Z,92.50
2018-10-19T03:36:57.954Z,91.83
2018-10-19T03:39:26.748Z,92.83
2018-10-19T03:41:55.499Z,92.40
2018-10-19T03:44:24.245Z,91.40
2018-10-19T03:46:52.990Z,92.27
2018-10-19T03:49:21.787Z,92.40
2018-10-19T03:51:50.485Z,93.07
2018-10-19T03:54:19.402Z,95.80
2018-10-19T03:56:48.145Z,93.47
2018-10-19T03:59:16.950Z,94.17
2018-10-19T04:01:45.632Z,95.80
2018-10-19T04:04:14.371Z,92.57
2018-10-19T04:06:45.788Z,91.87
2018-10-19T04:09:14.585Z,95.27
2018-10-19T04:11:43.260Z,92.73
2018-10-19T04:14:12.525Z,91.83
2018-10-19T04:16:41.269Z,91.97
2018-10-19T04:19:10.403Z,90.70
2018-10-19T04:21:39.325Z,91.00
2018-10-19T04:24:08.085Z,93.90
2018-10-19T04:26:36.816Z,92.37
2018-10-19T04:29:06.144Z,90.77
2018-10-19T04:31:34.879Z,92.70
2018-10-19T04:34:03.704Z,93.23
2018-10-19T04:36:32.439Z,96.83
2018-10-19T04:39:01.260Z,90.80
2018-10-19T04:41:30.048Z,89.50
2018-10-19T04:43:58.744Z,91.00
2018-10-19T04:46:27.488Z,90.80
2018-10-19T04:48:56.232Z,89.60
2018-10-19T04:51:24.968Z,89.77
2018-10-19T04:53:53.805Z,91.37
2018-10-19T04:56:22.468Z,92.20
2018-10-19T04:58:51.615Z,93.70
2018-10-19T05:01:20.372Z,91.33
2018-10-19T05:03:49.113Z,89.77
2018-10-19T05:06:17.862Z,90.47
2018-10-19T05:08:46.584Z,92.93
2018-10-19T05:11:15.423Z,91.70
2018-10-19T05:13:44.100Z,90.83
2018-10-19T05:16:12.849Z,90.23
2018-10-19T05:18:41.581Z,88.83
2018-10-19T05:21:10.436Z,91.73
2018-10-19T05:23:39.172Z,91.03
2018-10-19T05:26:07.926Z,90.10
2018-10-19T05:28:36.714Z,89.30
2018-10-19T05:31:05.492Z,90.10
2018-10-19T05:33:34.232Z,91.93
2018-10-19T05:36:03.055Z,90.53
2018-10-19T05:38:31.803Z,91.70
2018-10-19T05:41:00.578Z,91.73
2018-10-19T05:43:29.318Z,92.87
2018-10-19T05:45:58.092Z,91.23
2018-10-19T05:48:26.825Z,90.03
2018-10-19T05:50:55.570Z,91.10
2018-10-19T05:53:24.304Z,90.50
2018-10-19T05:55:53.064Z,95.50
2018-10-19T05:58:21.823Z,89.77
2018-10-19T06:00:50.556Z,96.37
2018-10-19T06:03:19.300Z,74.37
2018-10-19T06:05:48.077Z,73.23
2018-10-19T06:08:16.880Z,75.70
2018-10-19T06:10:45.560Z,71.47
2018-10-19T06:13:14.292Z,70.23
2018-10-19T06:15:43.266Z,65.33
2018-10-19T06:18:12.010Z,73.93
2018-10-19T06:20:40.838Z,66.23
2018-10-19T06:23:09.667Z,65.50
2018-10-19T06:25:38.521Z,67.83
2018-10-19T06:28:07.277Z,66.57
2018-10-19T06:30:36.014Z,62.87
2018-10-19T06:33:05.064Z,69.40
2018-10-19T06:35:33.813Z,63.33
2018-10-19T06:38:02.604Z,75.10
2018-10-19T06:40:31.306Z,63.90
2018-10-19T06:43:00.037Z,67.70
2018-10-19T06:45:28.775Z,67.87
2018-10-19T06:47:57.511Z,64.47
2018-10-19T06:50:26.288Z,67.47
2018-10-19T06:52:55.075Z,67.10
2018-10-19T06:55:23.769Z,66.00
2018-10-19T06:57:52.512Z,63.47
2018-10-19T07:00:21.260Z,65.03
2018-10-19T07:02:50.003Z,65.40
2018-10-19T07:05:25.178Z,64.77
2018-10-19T07:07:53.907Z,66.00
2018-10-19T07:10:22.636Z,66.60
2018-10-19T07:12:51.400Z,69.10
2018-10-19T07:15:20.140Z,66.77
2018-10-19T07:17:48.897Z,66.30
2018-10-19T07:20:18.264Z,68.33
2018-10-19T07:22:47.003Z,67.43
2018-10-19T07:25:15.997Z,74.80
2018-10-19T07:27:44.769Z,73.27
2018-10-19T07:30:13.509Z,67.63
2018-10-19T07:32:42.260Z,67.73
2018-10-19T07:35:11.098Z,67.77
2018-10-19T07:37:39.768Z,68.27
2018-10-19T07:40:08.504Z,69.23
2018-10-19T07:42:37.267Z,70.50
2018-10-19T07:45:06.756Z,69.20
2018-10-19T07:47:35.552Z,79.57
2018-10-19T07:50:05.168Z,80.87
2018-10-19T07:52:33.852Z,80.40
2018-10-19T07:55:02.617Z,71.10
2018-10-19T07:57:31.353Z,73.77
2018-10-19T08:00:00.105Z,76.40
2018-10-19T08:02:28.854Z,71.73
2018-10-19T08:04:57.605Z,73.63
2018-10-19T08:07:26.349Z,75.10
2018-10-19T08:09:55.081Z,73.30
2018-10-19T08:12:23.876Z,72.47
2018-10-19T08:14:52.631Z,77.13
2018-10-19T08:17:21.364Z,73.27
2018-10-19T08:19:50.184Z,71.13
2018-10-19T08:22:18.926Z,74.10
2018-10-19T08:24:47.831Z,74.53
2018-10-19T08:27:16.629Z,76.53
2018-10-19T08:29:45.377Z,81.40
2018-10-19T08:32:14.163Z,77.73
2018-10-19T08:34:43.021Z,76.30
2018-10-19T08:37:11.764Z,78.13
2018-10-19T08:39:40.496Z,78.47
2018-10-19T08:42:09.252Z,79.20
2018-10-19T08:44:38.004Z,80.00
2018-10-19T08:47:06.778Z,81.73
2018-10-19T08:49:35.483Z,84.10
2018-10-19T08:52:04.237Z,81.47
2018-10-19T08:54:33.023Z,83.50
2018-10-19T08:57:01.802Z,83.77
2018-10-19T08:59:30.476Z,81.73
2018-10-19T09:01:59.216Z,86.83
2018-10-19T09:04:28.015Z,85.00
2018-10-19T09:06:56.792Z,87.37
2018-10-19T09:09:25.533Z,86.33
2018-10-19T09:11:54.391Z,92.43
2018-10-19T09:14:34.590Z,88.73
2018-10-19T09:17:03.469Z,84.47
2018-10-19T09:19:32.144Z,87.47
2018-10-19T09:22:00.920Z,81.23
2018-10-19T09:24:29.652Z,83.57
2018-10-19T09:26:58.441Z,86.83
2018-10-19T09:29:27.204Z,81.63
2018-10-19T09:31:55.892Z,87.43
2018-10-19T09:34:25.061Z,82.77
2018-10-19T09:36:53.830Z,81.50
2018-10-19T09:39:22.553Z,85.63
2018-10-19T09:41:51.336Z,85.17
2018-10-19T09:44:20.060Z,85.93
2018-10-19T09:46:48.832Z,84.67
2018-10-19T09:49:17.577Z,84.37
2018-10-19T09:51:46.352Z,91.07
2018-10-19T09:54:15.121Z,91.43
2018-10-19T09:56:43.869Z,91.97
2018-10-19T09:59:12.671Z,89.47
2018-10-19T10:01:41.876Z,89.77
2018-10-19T10:04:10.616Z,89.63
2018-10-19T10:06:39.356Z,104.10
2018-10-19T10:09:11.141Z,88.37
2018-10-19T10:11:40.000Z,90.57
2018-10-19T10:14:09.005Z,93.17
2018-10-19T10:16:37.744Z,88.27
2018-10-19T10:19:07.043Z,88.70
2018-10-19T10:21:35.876Z,88.60
2018-10-19T10:24:05.655Z,89.97
2018-10-19T10:26:34.580Z,90.73
2018-10-19T10:29:03.396Z,92.37
2018-10-19T10:31:32.249Z,90.70
2018-10-19T10:34:01.079Z,88.20
2018-10-19T10:36:29.763Z,90.83
2018-10-19T10:38:58.549Z,90.67
2018-10-19T10:41:27.412Z,89.33
2018-10-19T10:43:56.161Z,89.90
2018-10-19T10:46:24.920Z,92.60
2018-10-19T10:48:53.699Z,88.97
2018-10-19T10:51:22.559Z,88.90
2018-10-19T10:53:51.303Z,92.30
2018-10-19T10:56:20.036Z,88.20
2018-10-19T10:58:48.805Z,89.97
2018-10-19T11:01:17.532Z,87.83
2018-10-19T11:03:46.310Z,89.07
2018-10-19T11:06:15.097Z,88.93
2018-10-19T11:08:43.841Z,89.03
2018-10-19T11:11:13.697Z,94.93
2018-10-19T11:13:43.220Z,93.93
2018-10-19T11:16:12.955Z,92.60
2018-10-19T11:18:41.841Z,90.17
2018-10-19T11:21:10.612Z,90.47
2018-10-19T11:23:39.320Z,91.07
2018-10-19T11:26:08.064Z,94.73
2018-10-19T11:28:36.811Z,92.03
2018-10-19T11:31:05.840Z,93.73
2018-10-19T11:33:34.539Z,94.23
2018-10-19T11:36:03.292Z,91.90
2018-10-19T11:38:32.024Z,91.77
2018-10-19T11:41:00.768Z,96.53
2018-10-19T11:43:29.496Z,96.00
2018-10-19T11:45:58.285Z,94.70
2018-10-19T11:48:27.005Z,92.20
2018-10-19T11:50:55.752Z,91.33
2018-10-19T11:53:24.488Z,97.80
2018-10-19T11:55:53.238Z,93.73
2018-10-19T11:58:21.960Z,94.13
2018-10-19T12:00:50.716Z,93.77
2018-10-19T12:03:19.449Z,96.67
2018-10-19T12:05:48.200Z,94.83
2018-10-19T12:08:16.949Z,91.10
2018-10-19T12:10:45.746Z,93.60
2018-10-19T12:13:14.467Z,91.53
2018-10-19T12:15:49.017Z,93.37
2018-10-19T12:18:17.747Z,90.07
2018-10-19T12:20:46.562Z,94.17
2018-10-19T12:23:15.272Z,93.67
2018-10-19T12:25:44.013Z,91.60
2018-10-19T12:28:12.749Z,94.17
2018-10-19T12:30:41.497Z,90.50
2018-10-19T12:33:10.257Z,92.90
2018-10-19T12:35:39.057Z,91.00
2018-10-19T12:38:07.716Z,90.17
2018-10-19T12:40:36.486Z,88.70
2018-10-19T12:43:06.173Z,89.77
2018-10-19T12:46:44.676Z,90.13
2018-10-19T12:49:14.840Z,87.40
2018-10-19T12:51:43.541Z,85.77
2018-10-19T12:54:12.333Z,88.50
2018-10-19T12:56:41.044Z,94.70
2018-10-19T12:59:09.793Z,87.47
2018-10-19T13:01:38.523Z,89.33
2018-10-19T13:04:07.268Z,85.73
2018-10-19T13:06:36.048Z,91.93
2018-10-19T13:09:08.542Z,87.27
2018-10-19T13:11:37.221Z,89.87
2018-10-19T13:14:06.760Z,89.10
2018-10-19T13:16:36.369Z,91.17
2018-10-19T13:19:05.238Z,86.73
2018-10-19T13:21:34.497Z,85.23
2018-10-19T13:24:03.374Z,88.27
2018-10-19T13:26:32.049Z,87.60
2018-10-19T13:29:00.836Z,91.30
2018-10-19T13:31:29.572Z,86.93
2018-10-19T13:33:58.324Z,89.37
2018-10-19T13:36:27.063Z,90.60
2018-10-19T13:38:55.897Z,92.17
2018-10-19T13:41:24.637Z,90.60
2018-10-19T13:43:53.355Z,90.67
2018-10-19T13:46:22.091Z,86.60
2018-10-19T13:48:50.888Z,88.03
2018-10-19T13:51:19.620Z,93.23
2018-10-19T13:53:48.361Z,90.27
2018-10-19T13:56:17.104Z,92.00
2018-10-19T13:58:45.857Z,90.80
2018-10-19T14:01:14.588Z,90.07
2018-10-19T14:03:43.380Z,88.53
2018-10-19T14:06:12.164Z,90.50
2018-10-19T14:08:40.938Z,96.30
2018-10-19T14:11:09.866Z,91.10
2018-10-19T14:13:38.727Z,89.07
2018-10-19T14:16:07.476Z,90.77
2018-10-19T14:18:36.226Z,95.63
2018-10-19T14:21:05.232Z,89.50
2018-10-19T14:23:33.932Z,89.67
2018-10-19T14:26:02.748Z,92.07
2018-10-19T14:28:31.493Z,89.53
2018-10-19T14:31:00.578Z,92.93
2018-10-19T14:33:29.477Z,90.47
2018-10-19T14:35:58.024Z,87.60
2018-10-19T14:38:26.781Z,89.50
2018-10-19T14:40:55.577Z,88.60
2018-10-19T14:43:24.252Z,89.43
2018-10-19T14:45:53.028Z,90.90
2018-10-19T14:48:21.765Z,89.67
2018-10-19T14:50:50.569Z,87.73
2018-10-19T14:53:19.317Z,88.30
2018-10-19T14:55:48.060Z,93.40
2018-10-19T14:58:17.384Z,88.37
2018-10-19T15:00:46.144Z,89.20
2018-10-19T15:03:14.958Z,94.13
2018-10-19T15:05:43.640Z,97.30
2018-10-19T15:08:12.384Z,96.70
2018-10-19T15:10:41.501Z,98.87
2018-10-19T15:13:09.927Z,97.90
2018-10-19T15:15:38.680Z,97.17
2018-10-19T15:18:07.571Z,99.57
2018-10-19T15:20:36.350Z,98.70
2018-10-19T15:23:05.104Z,100.13
2018-10-19T15:25:33.848Z,99.73
2018-10-19T15:28:02.609Z,99.20
2018-10-19T15:30:31.376Z,98.63
2018-10-19T15:33:00.134Z,100.70
2018-10-19T15:35:29.493Z,98.40
2018-10-19T15:37:58.243Z,99.00
2018-10-19T15:40:26.996Z,108.47
2018-10-19T15:42:55.740Z,99.20
2018-10-19T15:45:26.048Z,108.90
2018-10-19T15:47:54.816Z,97.60
2018-10-19T15:50:23.625Z,97.73
2018-10-19T15:52:52.389Z,99.03
2018-10-19T15:55:21.147Z,97.27
2018-10-19T15:57:49.888Z,97.83
2018-10-19T16:00:18.772Z,97.77
2018-10-19T16:02:47.396Z,99.10
2018-10-19T16:07:49.821Z,98.63
2018-10-19T16:10:18.614Z,96.07
2018-10-19T16:12:47.317Z,114.70
2018-10-19T16:15:16.127Z,97.33
2018-10-19T16:17:44.878Z,101.33
2018-10-19T16:20:13.572Z,95.13
2018-10-19T16:22:42.326Z,96.43
2018-10-19T16:25:11.089Z,97.27
2018-10-19T16:27:39.852Z,96.00
2018-10-19T16:30:09.808Z,95.00
2018-10-19T16:32:39.068Z,98.20
2018-10-19T16:35:09.097Z,98.20
2018-10-19T16:37:38.216Z,96.67
2018-10-19T16:40:07.231Z,96.70
2018-10-19T16:42:36.092Z,96.57
2018-10-19T16:45:05.857Z,95.47
2018-10-19T16:47:34.576Z,96.13
2018-10-19T16:50:03.374Z,97.00
2018-10-19T16:52:32.202Z,98.33
2018-10-19T16:55:00.901Z,91.50
2018-10-19T16:57:29.664Z,93.43
2018-10-19T16:59:58.430Z,97.50
2018-10-19T17:02:35.128Z,104.07
2018-10-19T17:05:05.899Z,94.33
2018-10-19T17:07:34.649Z,91.37
2018-10-19T17:10:03.460Z,96.73
2018-10-19T17:12:32.232Z,92.90
2018-10-19T17:15:06.050Z,90.97
2018-10-19T17:17:38.576Z,94.43
2018-10-19T17:23:11.846Z,95.83
2018-10-19T17:25:40.604Z,96.83
2018-10-19T17:28:14.517Z,100.03
2018-10-19T17:30:43.463Z,98.13
2018-10-19T17:33:13.321Z,90.90
2018-10-19T17:35:42.060Z,94.17
2018-10-19T17:38:10.808Z,101.60
2018-10-19T17:41:02.163Z,90.97
2018-10-19T17:43:31.276Z,94.73
2018-10-19T17:45:59.943Z,89.97
2018-10-19T17:48:28.702Z,88.77
2018-10-19T17:50:57.478Z,92.77
2018-10-19T17:53:26.208Z,91.90
2018-10-19T17:55:54.956Z,89.77
2018-10-19T18:01:07.801Z,89.97
2018-10-19T18:03:36.542Z,86.97
2018-10-19T18:06:05.986Z,87.23
2018-10-19T18:08:34.713Z,85.37
2018-10-19T18:11:03.541Z,92.03
2018-10-19T18:13:47.692Z,90.83
2018-10-19T18:16:16.459Z,91.90
2018-10-19T18:18:45.212Z,87.97
2018-10-19T18:24:11.285Z,90.30
2018-10-19T18:26:40.064Z,86.40
2018-10-19T18:29:08.908Z,89.87
2018-10-19T18:31:37.620Z,89.50
2018-10-19T18:34:06.373Z,90.23
2018-10-19T18:36:35.197Z,91.93
2018-10-19T18:39:05.450Z,86.00
2018-10-19T18:44:28.908Z,89.03
2018-10-19T18:49:48.427Z,87.30
2018-10-19T18:52:17.189Z,87.83
2018-10-19T18:54:45.937Z,85.83
2018-10-19T18:57:14.698Z,88.73
2018-10-19T18:59:43.700Z,93.43
2018-10-19T19:02:12.499Z,91.00
2018-10-19T19:04:41.238Z,87.37
2018-10-19T19:07:09.988Z,87.23
2018-10-19T19:09:38.757Z,90.03
2018-10-19T19:12:07.521Z,90.57
2018-10-19T19:14:36.286Z,89.40
2018-10-19T19:17:05.129Z,87.40
2018-10-19T19:19:33.860Z,85.13
2018-10-19T19:22:02.757Z,86.57
2018-10-19T19:24:36.988Z,86.03
2018-10-19T19:27:05.824Z,84.53
2018-10-19T19:29:34.625Z,84.30
2018-10-19T19:32:03.463Z,89.07
2018-10-19T19:34:33.097Z,84.40
2018-10-19T19:37:01.881Z,92.77
2018-10-19T19:39:30.642Z,96.87
2018-10-19T19:42:04.736Z,88.33
2018-10-19T19:44:33.505Z,89.07
2018-10-19T19:47:02.366Z,88.00
2018-10-19T19:49:39.676Z,92.20
2018-10-19T19:52:08.417Z,86.73
2018-10-19T19:54:37.184Z,85.90
2018-10-19T19:57:06.168Z,92.03
2018-10-19T19:59:34.917Z,87.93
2018-10-19T20:02:03.818Z,92.10
2018-10-19T20:04:32.553Z,91.43
2018-10-19T20:07:01.333Z,88.33
2018-10-19T20:09:30.054Z,106.73
2018-10-19T20:11:58.836Z,100.23
2018-10-19T20:14:27.597Z,93.50
2018-10-19T20:16:56.358Z,95.43
2018-10-19T20:19:25.133Z,97.93
2018-10-19T20:21:53.884Z,97.23
2018-10-19T20:24:22.654Z,90.03
2018-10-19T20:26:51.404Z,95.70
2018-10-19T20:29:20.153Z,87.93
2018-10-19T20:31:48.913Z,90.30
2018-10-19T20:34:17.671Z,89.37
2018-10-19T20:36:47.403Z,89.37
2018-10-19T20:39:16.146Z,89.07
2018-10-19T20:41:44.909Z,89.80
2018-10-19T20:44:14.026Z,90.93
2018-10-19T20:46:42.705Z,87.30
2018-10-19T20:49:11.457Z,88.17
2018-10-19T20:51:40.212Z,86.50
2018-10-19T20:54:08.965Z,87.63
2018-10-19T20:56:37.720Z,90.17
2018-10-19T20:59:06.518Z,88.20
2018-10-19T21:01:35.228Z,90.57
2018-10-19T21:04:04.017Z,88.67
2018-10-19T21:06:32.776Z,94.80
2018-10-19T21:09:01.548Z,89.03
2018-10-19T21:11:30.320Z,91.10
2018-10-19T21:13:59.120Z,90.57
2018-10-19T21:16:27.848Z,76.87
2018-10-19T21:18:56.596Z,71.27
2018-10-19T21:21:25.373Z,68.43
2018-10-19T21:23:54.124Z,69.83
2018-10-19T21:26:23.077Z,65.43
2018-10-19T21:28:51.826Z,66.13
2018-10-19T21:31:20.605Z,66.27
2018-10-19T21:33:49.724Z,68.93
2018-10-19T21:36:18.513Z,68.23
2018-10-19T21:38:47.244Z,70.50
2018-10-19T21:41:16.094Z,67.93
2018-10-19T21:43:44.765Z,71.73
2018-10-19T21:46:13.509Z,69.87
2018-10-19T21:48:42.280Z,66.87
2018-10-19T21:51:11.031Z,68.57
2018-10-19T21:53:39.776Z,69.13
2018-10-19T21:56:08.614Z,66.60
2018-10-19T21:58:37.280Z,69.60
2018-10-19T22:01:06.035Z,82.37
2018-10-19T22:03:34.783Z,70.93
2018-10-19T22:06:03.545Z,67.63
2018-10-19T22:08:32.624Z,65.67
2018-10-19T22:11:01.292Z,67.37
2018-10-19T22:13:30.045Z,72.47
2018-10-19T22:15:58.812Z,67.93
2018-10-19T22:18:27.565Z,70.00
2018-10-19T22:20:56.301Z,71.93
2018-10-19T22:23:25.095Z,66.60
2018-10-19T22:25:53.846Z,68.67
2018-10-19T22:28:22.544Z,67.47
2018-10-19T22:30:51.279Z,68.97
2018-10-19T22:33:20.021Z,66.53
2018-10-19T22:35:48.776Z,65.63
2018-10-19T22:38:17.520Z,68.27
2018-10-19T22:40:46.271Z,75.53
2018-10-19T22:43:15.075Z,66.13
2018-10-19T22:45:43.756Z,68.47
2018-10-19T22:48:12.502Z,67.20
2018-10-19T22:50:41.249Z,72.60
2018-10-19T22:53:10.032Z,67.27
2018-10-19T22:55:38.741Z,67.20
2018-10-19T22:58:07.484Z,67.53
2018-10-19T23:00:36.240Z,73.73
2018-10-19T23:03:05.249Z,70.00
2018-10-19T23:05:34.025Z,65.20
2018-10-19T23:08:02.772Z,67.20
2018-10-19T23:10:31.508Z,67.50
2018-10-19T23:13:00.255Z,70.97
2018-10-19T23:15:29.009Z,67.63
2018-10-19T23:17:57.761Z,66.80
2018-10-19T23:20:26.508Z,70.47
2018-10-19T23:22:55.537Z,71.90
2018-10-19T23:25:24.261Z,64.90
2018-10-19T23:27:53.004Z,67.00
2018-10-19T23:30:21.795Z,67.73
2018-10-19T23:32:50.540Z,67.20
2018-10-19T23:35:19.332Z,68.10
2018-10-19T23:37:48.068Z,66.87
2018-10-19T23:40:16.817Z,65.17
2018-10-19T23:42:45.552Z,66.33
2018-10-19T23:45:14.287Z,65.67
2018-10-19T23:47:43.576Z,67.43
2018-10-19T23:50:12.330Z,69.67
2018-10-19T23:52:41.077Z,68.17
2018-10-19T23:55:09.832Z,65.77
2018-10-19T23:57:38.563Z,68.13
